createdAt,value
2023-02-11T00:00:43.326Z,5.13
2023-02-11T00:03:11.069Z,6.57
2023-02-11T00:05:38.482Z,4.97
2023-02-11T00:08:05.928Z,5.10
2023-02-11T00:10:33.076Z,5.60
2023-02-11T00:13:00.220Z,5.47
2023-02-11T00:15:27.345Z,6.57
2023-02-11T00:17:54.477Z,6.00
2023-02-11T00:20:21.635Z,5.03
2023-02-11T00:22:48.813Z,5.50
2023-02-11T00:25:15.942Z,5.80
2023-02-11T00:27:43.070Z,5.90
2023-02-11T00:30:11.674Z,5.97
2023-02-11T00:32:38.845Z,4.70
2023-02-11T00:35:06.119Z,6.00
2023-02-11T00:37:36.371Z,5.33
2023-02-11T00:40:06.653Z,6.07
2023-02-11T00:42:35.620Z,4.87
2023-02-11T00:45:03.366Z,4.60
2023-02-11T00:47:30.575Z,4.47
2023-02-11T00:49:57.688Z,4.30
2023-02-11T00:52:24.888Z,4.83
2023-02-11T00:54:52.047Z,4.17
2023-02-11T00:57:19.200Z,4.60
2023-02-11T00:59:46.313Z,5.37
2023-02-11T01:02:13.439Z,5.83
2023-02-11T01:04:40.599Z,4.83
2023-02-11T01:07:07.741Z,4.30
2023-02-11T01:09:34.906Z,3.80
2023-02-11T01:12:02.028Z,3.97
2023-02-11T01:14:29.190Z,4.70
2023-02-11T01:16:56.364Z,4.57
2023-02-11T01:19:23.529Z,4.80
2023-02-11T01:21:50.708Z,4.63
2023-02-11T01:24:17.834Z,4.50
2023-02-11T01:26:45.042Z,5.40
2023-02-11T01:29:12.184Z,4.33
2023-02-11T01:31:39.509Z,3.47
2023-02-11T01:34:06.707Z,5.17
2023-02-11T01:36:33.827Z,3.90
2023-02-11T01:39:00.931Z,4.40
2023-02-11T01:41:28.052Z,3.60
2023-02-11T01:43:55.209Z,3.90
2023-02-11T01:46:34.644Z,4.40
2023-02-11T01:49:10.223Z,5.30
2023-02-11T01:51:40.067Z,5.00
2023-02-11T01:54:26.845Z,4.43
2023-02-11T01:57:14.237Z,4.53
2023-02-11T02:00:01.606Z,3.53
2023-02-11T02:02:47.719Z,4.33
2023-02-11T02:05:33.807Z,4.03
2023-02-11T02:08:13.180Z,4.60
2023-02-11T02:10:42.074Z,5.07
2023-02-11T02:13:09.261Z,4.90
2023-02-11T02:15:40.207Z,4.27
2023-02-11T02:18:13.363Z,4.67
2023-02-11T02:20:59.046Z,4.97
2023-02-11T02:23:26.313Z,4.57
2023-02-11T02:26:08.399Z,5.63
2023-02-11T02:28:55.485Z,5.57
2023-02-11T02:31:47.207Z,5.33
2023-02-11T02:34:18.052Z,4.77
2023-02-11T02:36:49.924Z,5.90
2023-02-11T02:39:22.189Z,5.87
2023-02-11T02:41:49.751Z,6.07
2023-02-11T02:44:16.944Z,6.03
2023-02-11T02:46:44.439Z,5.17
2023-02-11T02:49:15.816Z,5.67
2023-02-11T02:51:51.918Z,5.43
2023-02-11T02:54:34.012Z,6.20
2023-02-11T02:57:04.228Z,6.40
2023-02-11T02:59:37.098Z,5.77
2023-02-11T03:02:12.039Z,5.03
2023-02-11T03:04:39.165Z,5.17
2023-02-11T03:07:18.285Z,5.43
2023-02-11T03:09:57.551Z,5.67
2023-02-11T03:12:25.573Z,5.80
2023-02-11T03:14:52.948Z,6.17
2023-02-11T03:17:20.415Z,5.93
2023-02-11T03:19:49.051Z,5.13
2023-02-11T03:22:38.291Z,5.77
2023-02-11T03:25:05.774Z,4.87
2023-02-11T03:27:54.197Z,5.90
2023-02-11T03:30:23.162Z,6.10
2023-02-11T03:32:52.423Z,5.50
2023-02-11T03:35:25.261Z,6.27
2023-02-11T03:37:54.626Z,5.27
2023-02-11T03:40:31.989Z,6.37
2023-02-11T03:43:00.714Z,6.00
2023-02-11T03:45:28.399Z,6.67
2023-02-11T03:47:57.999Z,5.60
2023-02-11T03:50:25.602Z,6.00
2023-02-11T03:52:53.519Z,5.97
2023-02-11T03:55:21.755Z,6.80
2023-02-11T03:57:48.995Z,5.93
2023-02-11T04:00:16.522Z,5.23
2023-02-11T04:02:44.061Z,5.50
2023-02-11T04:05:15.790Z,4.67
2023-02-11T04:07:43.098Z,5.17
2023-02-11T04:10:10.474Z,5.13
2023-02-11T04:12:37.590Z,3.93
2023-02-11T04:15:04.871Z,4.27
2023-02-11T04:17:32.017Z,5.47
2023-02-11T04:19:59.155Z,4.63
2023-02-11T04:22:26.366Z,3.37
2023-02-11T04:24:53.498Z,3.47
2023-02-11T04:27:20.630Z,4.80
2023-02-11T04:29:48.208Z,4.63
2023-02-11T04:32:15.598Z,5.00
2023-02-11T04:34:42.723Z,5.20
2023-02-11T04:37:09.872Z,4.53
2023-02-11T04:39:37.148Z,5.17
2023-02-11T04:42:04.343Z,4.30
2023-02-11T04:44:31.489Z,4.50
2023-02-11T04:46:58.643Z,6.00
2023-02-11T04:49:26.116Z,5.63
2023-02-11T04:51:53.262Z,4.50
2023-02-11T04:54:20.447Z,6.10
2023-02-11T04:56:47.673Z,5.50
2023-02-11T04:59:14.875Z,6.00
2023-02-11T05:01:42.271Z,5.23
2023-02-11T05:04:09.578Z,5.87
2023-02-11T05:06:38.618Z,6.73
2023-02-11T05:09:05.814Z,6.40
2023-02-11T05:11:32.964Z,5.93
2023-02-11T05:14:00.135Z,5.77
2023-02-11T05:16:27.352Z,5.93
2023-02-11T05:18:55.797Z,6.70
2023-02-11T05:21:23.068Z,5.33
2023-02-11T05:23:50.220Z,6.17
2023-02-11T05:26:17.846Z,5.27
2023-02-11T05:28:45.483Z,6.60
2023-02-11T05:31:14.571Z,6.20
2023-02-11T05:33:42.096Z,6.27
2023-02-11T05:36:10.896Z,6.53
2023-02-11T05:38:38.561Z,6.83
2023-02-11T05:41:06.584Z,6.00
2023-02-11T05:43:35.386Z,6.50
2023-02-11T05:46:02.648Z,6.37
2023-02-11T05:48:29.881Z,5.43
2023-02-11T05:50:57.056Z,4.83
2023-02-11T05:53:24.208Z,4.90
2023-02-11T05:55:51.722Z,5.43
2023-02-11T05:58:19.016Z,4.40
2023-02-11T06:00:46.186Z,4.47
2023-02-11T06:03:13.337Z,4.23
2023-02-11T06:05:40.540Z,4.90
2023-02-11T06:08:07.702Z,4.63
2023-02-11T06:10:34.820Z,4.93
2023-02-11T06:13:02.234Z,4.70
2023-02-11T06:15:29.495Z,4.63
2023-02-11T06:17:56.861Z,4.50
2023-02-11T06:20:23.981Z,4.53
2023-02-11T06:22:51.176Z,4.77
2023-02-11T06:25:18.408Z,5.13
2023-02-11T06:27:45.595Z,4.97
2023-02-11T06:30:12.911Z,4.40
2023-02-11T06:32:44.663Z,4.73
2023-02-11T06:35:12.742Z,4.80
2023-02-11T06:37:40.321Z,4.53
2023-02-11T06:40:07.809Z,5.07
2023-02-11T06:42:36.122Z,4.80
2023-02-11T06:45:05.906Z,4.90
2023-02-11T06:47:33.083Z,4.57
2023-02-11T06:50:00.405Z,4.50
2023-02-11T06:52:27.541Z,4.13
2023-02-11T06:54:54.762Z,4.47
2023-02-11T06:57:21.920Z,4.23
2023-02-11T06:59:49.123Z,4.10
2023-02-11T07:02:17.985Z,4.17
2023-02-11T07:04:46.223Z,3.83
2023-02-11T07:07:13.470Z,3.70
2023-02-11T07:09:40.624Z,3.50
2023-02-11T07:12:07.844Z,3.30
2023-02-11T07:14:34.989Z,3.13
2023-02-11T07:17:04.042Z,3.20
2023-02-11T07:19:31.282Z,3.13
2023-02-11T07:21:58.497Z,2.90
2023-02-11T07:24:25.665Z,3.03
2023-02-11T07:26:53.801Z,3.00
2023-02-11T07:29:20.922Z,2.80
2023-02-11T07:31:48.232Z,2.50
2023-02-11T07:34:15.479Z,2.60
2023-02-11T07:36:43.792Z,2.73
2023-02-11T07:39:10.928Z,2.63
2023-02-11T07:41:39.141Z,3.03
2023-02-11T07:44:06.285Z,2.80
2023-02-11T07:46:35.696Z,2.60
2023-02-11T07:49:02.912Z,2.50
2023-02-11T07:51:30.760Z,3.17
2023-02-11T07:53:59.552Z,2.37
2023-02-11T07:56:26.772Z,2.70
2023-02-11T07:58:54.309Z,2.80
2023-02-11T08:01:24.985Z,2.90
2023-02-11T08:03:52.908Z,3.00
2023-02-11T08:06:20.982Z,2.70
2023-02-11T08:08:48.332Z,2.70
2023-02-11T08:11:20.659Z,2.30
2023-02-11T08:13:47.839Z,2.47
2023-02-11T08:16:34.785Z,2.67
2023-02-11T08:19:03.284Z,2.97
2023-02-11T08:21:30.550Z,2.50
2023-02-11T08:23:57.902Z,2.80
2023-02-11T08:26:29.592Z,2.90
2023-02-11T08:28:57.648Z,2.87
2023-02-11T08:31:26.652Z,2.43
2023-02-11T08:33:54.877Z,2.97
2023-02-11T08:36:23.638Z,2.30
2023-02-11T08:38:51.153Z,2.60
2023-02-11T08:41:18.846Z,2.90
2023-02-11T08:43:46.397Z,3.00
2023-02-11T08:46:15.383Z,3.40
2023-02-11T08:48:42.780Z,3.10
2023-02-11T08:51:10.796Z,2.93
2023-02-11T08:53:38.087Z,3.00
2023-02-11T08:56:06.082Z,3.10
2023-02-11T08:58:33.380Z,3.13
2023-02-11T09:01:00.720Z,3.07
2023-02-11T09:03:27.999Z,3.37
2023-02-11T09:05:55.141Z,3.47
2023-02-11T09:08:22.273Z,2.93
2023-02-11T09:10:49.855Z,3.10
2023-02-11T09:13:17.260Z,3.47
2023-02-11T09:15:47.591Z,3.37
2023-02-11T09:18:15.306Z,3.90
2023-02-11T09:20:42.459Z,3.50
2023-02-11T09:23:10.497Z,4.23
2023-02-11T09:25:40.395Z,3.83
2023-02-11T09:28:07.964Z,4.40
2023-02-11T09:30:35.323Z,4.17
2023-02-11T09:33:03.236Z,3.97
2023-02-11T09:35:30.469Z,4.33
2023-02-11T09:37:57.609Z,4.07
2023-02-11T09:40:24.724Z,3.97
2023-02-11T09:42:54.475Z,4.63
2023-02-11T09:45:24.660Z,3.70
2023-02-11T09:47:54.829Z,3.97
2023-02-11T09:50:29.010Z,4.13
2023-02-11T09:53:19.490Z,3.40
2023-02-11T09:55:48.490Z,3.53
2023-02-11T09:58:21.766Z,3.90
2023-02-11T10:01:07.794Z,3.30
2023-02-11T10:03:53.857Z,3.80
2023-02-11T10:06:21.038Z,3.27
2023-02-11T10:08:54.326Z,3.50
2023-02-11T10:11:32.684Z,4.33
2023-02-11T10:14:13.085Z,3.80
2023-02-11T10:16:56.494Z,3.80
2023-02-11T10:19:42.430Z,3.83
2023-02-11T10:22:09.549Z,3.90
2023-02-11T10:24:36.929Z,3.87
2023-02-11T10:27:13.377Z,4.07
2023-02-11T10:29:46.915Z,3.70
2023-02-11T10:32:27.449Z,4.33
2023-02-11T10:34:56.689Z,4.03
2023-02-11T10:37:23.797Z,4.13
2023-02-11T10:39:50.985Z,3.93
2023-02-11T10:42:18.137Z,3.67
2023-02-11T10:45:03.044Z,4.17
2023-02-11T10:47:32.861Z,3.63
2023-02-11T10:50:03.597Z,3.83
2023-02-11T10:52:31.661Z,4.33
2023-02-11T10:55:00.173Z,3.70
2023-02-11T10:57:30.834Z,3.53
2023-02-11T10:59:59.589Z,4.20
2023-02-11T11:02:34.310Z,4.00
2023-02-11T11:05:06.929Z,4.00
2023-02-11T11:07:34.770Z,4.30
2023-02-11T11:10:04.439Z,4.10
2023-02-11T11:12:46.591Z,4.47
2023-02-11T11:15:21.602Z,4.03
2023-02-11T11:17:49.754Z,4.07
2023-02-11T11:20:27.227Z,4.50
2023-02-11T11:23:13.172Z,4.10
2023-02-11T11:25:42.301Z,4.17
2023-02-11T11:28:19.549Z,4.40
2023-02-11T11:30:46.763Z,4.03
2023-02-11T11:33:20.400Z,4.43
2023-02-11T11:35:56.512Z,4.13
2023-02-11T11:38:24.553Z,4.60
2023-02-11T11:41:11.638Z,4.30
2023-02-11T11:43:38.780Z,4.13
2023-02-11T11:46:07.469Z,4.20
2023-02-11T11:48:43.463Z,4.17
2023-02-11T11:51:11.802Z,4.43
2023-02-11T11:53:44.084Z,4.20
2023-02-11T11:56:19.205Z,4.20
2023-02-11T11:58:46.481Z,4.17
2023-02-11T12:01:19.596Z,4.30
2023-02-11T12:04:16.138Z,4.10
2023-02-11T12:06:52.586Z,4.07
2023-02-11T12:09:19.675Z,4.23
2023-02-11T12:11:58.284Z,3.93
2023-02-11T12:14:28.302Z,4.00
2023-02-11T12:17:04.990Z,4.37
2023-02-11T12:19:54.881Z,4.33
2023-02-11T12:22:22.069Z,3.83
2023-02-11T12:25:09.486Z,4.13
2023-02-11T12:27:39.641Z,4.33
2023-02-11T12:30:18.791Z,4.20
2023-02-11T12:33:04.854Z,4.33
2023-02-11T12:35:37.325Z,4.73
2023-02-11T12:38:10.308Z,4.67
2023-02-11T12:40:51.739Z,4.50
2023-02-11T12:43:26.700Z,4.40
2023-02-11T12:46:10.282Z,4.57
2023-02-11T12:48:37.457Z,4.43
2023-02-11T12:51:11.063Z,5.20
2023-02-11T12:53:38.191Z,4.20
2023-02-11T12:56:07.183Z,4.70
2023-02-11T12:58:45.112Z,4.70
2023-02-11T13:01:19.692Z,5.00
2023-02-11T13:03:59.633Z,4.60
2023-02-11T13:06:33.630Z,5.03
2023-02-11T13:09:02.765Z,4.57
2023-02-11T13:11:38.975Z,7.10
2023-02-11T13:14:25.051Z,5.23
2023-02-11T13:16:53.364Z,5.03
2023-02-11T13:19:20.564Z,4.40
2023-02-11T13:22:03.750Z,4.63
2023-02-11T13:24:52.817Z,4.47
2023-02-11T13:27:38.705Z,5.33
2023-02-11T13:30:20.523Z,5.40
2023-02-11T13:32:57.026Z,4.53
2023-02-11T13:35:44.399Z,4.53
2023-02-11T13:38:25.218Z,5.07
2023-02-11T13:41:00.977Z,4.63
2023-02-11T13:43:28.854Z,4.57
2023-02-11T13:46:10.427Z,5.20
2023-02-11T13:48:38.869Z,4.60
2023-02-11T13:51:07.639Z,4.57
2023-02-11T13:54:03.916Z,4.67
2023-02-11T13:56:32.994Z,4.30
2023-02-11T13:59:02.290Z,4.80
2023-02-11T14:01:44.765Z,4.87
2023-02-11T14:04:46.877Z,4.63
2023-02-11T14:07:44.961Z,4.53
2023-02-11T14:10:44.032Z,4.30
2023-02-11T14:13:28.161Z,4.50
2023-02-11T14:16:17.112Z,4.07
2023-02-11T14:18:51.930Z,5.13
2023-02-11T14:21:25.177Z,4.10
2023-02-11T14:23:56.133Z,4.50
2023-02-11T14:26:26.306Z,5.00
2023-02-11T14:29:01.490Z,4.80
2023-02-11T14:31:34.831Z,5.03
2023-02-11T14:34:02.018Z,3.90
2023-02-11T14:36:55.416Z,5.13
2023-02-11T14:39:30.009Z,4.40
2023-02-11T14:41:57.329Z,4.27
2023-02-11T14:44:27.600Z,4.83
2023-02-11T14:46:55.644Z,4.93
2023-02-11T14:49:37.204Z,4.70
2023-02-11T14:52:16.975Z,4.17
2023-02-11T14:54:44.480Z,5.07
2023-02-11T14:57:14.671Z,4.40
2023-02-11T14:59:54.843Z,4.57
2023-02-11T15:02:23.710Z,4.33
2023-02-11T15:04:50.869Z,4.87
2023-02-11T15:07:18.277Z,4.37
2023-02-11T15:09:50.620Z,4.87
2023-02-11T15:12:20.204Z,4.60
2023-02-11T15:14:49.250Z,4.53
2023-02-11T15:17:18.445Z,4.83
2023-02-11T15:19:48.170Z,4.97
2023-02-11T15:22:21.917Z,4.47
2023-02-11T15:24:59.781Z,4.30
2023-02-11T15:27:26.971Z,4.53
2023-02-11T15:29:54.104Z,4.10
2023-02-11T15:32:23.198Z,4.43
2023-02-11T15:34:52.377Z,4.43
2023-02-11T15:37:24.011Z,5.23
2023-02-11T15:39:51.881Z,4.53
2023-02-11T15:42:19.042Z,4.50
2023-02-11T15:44:47.128Z,3.87
2023-02-11T15:47:21.269Z,4.53
2023-02-11T15:49:49.258Z,4.60
2023-02-11T15:52:24.118Z,4.40
2023-02-11T15:54:51.753Z,4.23
2023-02-11T15:57:18.994Z,4.67
2023-02-11T15:59:48.169Z,4.87
2023-02-11T16:02:18.380Z,5.20
2023-02-11T16:04:50.607Z,4.57
2023-02-11T16:07:36.203Z,4.60
2023-02-11T16:10:03.409Z,4.63
2023-02-11T16:12:30.557Z,4.60
2023-02-11T16:15:02.116Z,4.23
2023-02-11T16:17:30.027Z,4.53
2023-02-11T16:19:57.281Z,4.80
2023-02-11T16:22:29.879Z,5.33
2023-02-11T16:24:59.195Z,5.03
2023-02-11T16:27:29.709Z,4.60
2023-02-11T16:29:57.664Z,5.10
2023-02-11T16:32:26.222Z,4.87
2023-02-11T16:34:55.051Z,4.43
2023-02-11T16:37:22.568Z,5.00
2023-02-11T16:39:49.690Z,4.77
2023-02-11T16:42:16.882Z,4.33
2023-02-11T16:44:44.015Z,4.93
2023-02-11T16:47:18.212Z,4.30
2023-02-11T16:49:45.440Z,4.30
2023-02-11T16:52:19.102Z,4.70
2023-02-11T16:54:46.283Z,4.83
2023-02-11T16:57:17.657Z,4.50
2023-02-11T16:59:45.388Z,4.40
2023-02-11T17:02:18.522Z,4.77
2023-02-11T17:04:45.890Z,4.83
2023-02-11T17:07:13.382Z,5.30
2023-02-11T17:09:40.588Z,5.33
2023-02-11T17:12:07.798Z,4.70
2023-02-11T17:14:34.929Z,4.40
2023-02-11T17:17:02.121Z,4.70
2023-02-11T17:19:29.369Z,4.70
2023-02-11T17:21:56.511Z,5.07
2023-02-11T17:24:23.746Z,4.80
2023-02-11T17:26:51.192Z,4.27
2023-02-11T17:29:19.902Z,4.37
2023-02-11T17:31:47.335Z,4.77
2023-02-11T17:34:14.770Z,5.13
2023-02-11T17:36:41.918Z,4.30
2023-02-11T17:39:09.236Z,4.43
2023-02-11T17:41:39.774Z,4.40
2023-02-11T17:44:07.692Z,4.40
2023-02-11T17:46:35.152Z,4.33
2023-02-11T17:49:02.580Z,5.27
2023-02-11T17:51:33.223Z,7.73
2023-02-11T17:54:01.553Z,5.47
2023-02-11T17:56:30.885Z,4.90
2023-02-11T17:58:58.050Z,4.37
2023-02-11T18:01:27.903Z,4.90
2023-02-11T18:03:55.159Z,4.70
2023-02-11T18:06:22.295Z,4.70
2023-02-11T18:08:49.546Z,4.07
2023-02-11T18:11:16.820Z,4.00
2023-02-11T18:13:45.336Z,4.73
2023-02-11T18:16:15.743Z,4.80
2023-02-11T18:18:43.931Z,4.30
2023-02-11T18:21:18.398Z,4.57
2023-02-11T18:23:45.686Z,4.70
2023-02-11T18:26:13.683Z,4.67
2023-02-11T18:28:43.279Z,4.47
2023-02-11T18:31:12.696Z,5.40
2023-02-11T18:33:40.589Z,5.60
2023-02-11T18:36:08.297Z,8.10
2023-02-11T18:38:35.837Z,16.50
2023-02-11T18:41:03.075Z,32.70
2023-02-11T18:43:31.699Z,21.80
2023-02-11T18:45:58.894Z,17.10
2023-02-11T18:48:29.228Z,17.90
2023-02-11T18:50:56.667Z,17.10
2023-02-11T18:53:24.969Z,18.30
2023-02-11T18:55:54.896Z,11.73
2023-02-11T18:58:22.372Z,9.67
2023-02-11T19:00:50.334Z,9.83
2023-02-11T19:03:17.574Z,6.80
2023-02-11T19:05:46.095Z,7.97
2023-02-11T19:08:13.571Z,5.63
2023-02-11T19:10:46.089Z,7.13
2023-02-11T19:13:13.846Z,8.70
2023-02-11T19:15:42.065Z,7.27
2023-02-11T19:18:09.201Z,6.40
2023-02-11T19:20:36.401Z,6.37
2023-02-11T19:23:03.681Z,6.50
2023-02-11T19:25:30.863Z,6.67
2023-02-11T19:27:58.045Z,7.03
2023-02-11T19:30:25.229Z,7.63
2023-02-11T19:32:53.251Z,8.33
2023-02-11T19:35:20.527Z,7.57
2023-02-11T19:37:47.692Z,7.13
2023-02-11T19:40:16.459Z,7.30
2023-02-11T19:42:43.662Z,7.37
2023-02-11T19:45:10.856Z,5.93
2023-02-11T19:47:38.023Z,6.93
2023-02-11T19:50:06.148Z,7.03
2023-02-11T19:52:33.320Z,6.20
2023-02-11T19:55:00.912Z,6.00
2023-02-11T19:57:28.040Z,6.20
2023-02-11T19:59:56.890Z,5.90
2023-02-11T20:02:24.133Z,5.80
2023-02-11T20:04:51.325Z,6.47
2023-02-11T20:07:18.504Z,5.93
2023-02-11T20:09:45.669Z,6.53
2023-02-11T20:12:12.890Z,6.43
2023-02-11T20:14:40.053Z,6.10
2023-02-11T20:17:07.224Z,5.80
2023-02-11T20:19:34.405Z,6.53
2023-02-11T20:22:01.504Z,6.20
2023-02-11T20:24:28.644Z,5.87
2023-02-11T20:26:56.255Z,6.43
2023-02-11T20:29:23.964Z,7.63
2023-02-11T20:31:51.411Z,7.90
2023-02-11T20:34:18.901Z,8.43
2023-02-11T20:36:52.060Z,7.37
2023-02-11T20:39:21.759Z,6.80
2023-02-11T20:41:49.304Z,7.77
2023-02-11T20:44:16.474Z,6.53
2023-02-11T20:46:46.502Z,7.57
2023-02-11T20:49:14.836Z,6.93
2023-02-11T20:51:42.239Z,6.47
2023-02-11T20:54:12.799Z,7.30
2023-02-11T20:56:40.025Z,7.43
2023-02-11T20:59:07.214Z,6.80
2023-02-11T21:01:36.007Z,7.87
2023-02-11T21:04:05.132Z,7.80
2023-02-11T21:06:36.756Z,7.60
2023-02-11T21:09:05.140Z,7.60
2023-02-11T21:11:32.512Z,6.90
2023-02-11T21:14:00.335Z,6.60
2023-02-11T21:16:27.824Z,7.57
2023-02-11T21:18:55.530Z,7.03
2023-02-11T21:21:22.732Z,7.33
2023-02-11T21:23:50.053Z,7.47
2023-02-11T21:26:17.273Z,7.47
2023-02-11T21:28:44.523Z,7.57
2023-02-11T21:31:18.858Z,9.57
2023-02-11T21:33:46.077Z,8.40
2023-02-11T21:36:14.862Z,8.83
2023-02-11T21:38:42.285Z,8.43
2023-02-11T21:41:09.977Z,7.90
2023-02-11T21:43:37.165Z,7.50
2023-02-11T21:46:07.770Z,8.03
2023-02-11T21:48:35.380Z,7.80
2023-02-11T21:51:05.094Z,8.47
2023-02-11T21:53:32.590Z,8.20
2023-02-11T21:56:04.150Z,8.47
2023-02-11T21:58:31.301Z,8.57
2023-02-11T22:00:58.513Z,9.27
2023-02-11T22:03:25.659Z,8.33
2023-02-11T22:05:53.188Z,8.67
2023-02-11T22:08:20.605Z,8.63
2023-02-11T22:10:47.781Z,8.50
2023-02-11T22:13:14.946Z,9.43
2023-02-11T22:15:42.113Z,9.50
2023-02-11T22:18:09.369Z,9.67
2023-02-11T22:20:36.505Z,9.17
2023-02-11T22:23:03.688Z,9.23
2023-02-11T22:25:30.862Z,8.60
2023-02-11T22:27:58.002Z,8.13
2023-02-11T22:30:25.220Z,7.97
2023-02-11T22:32:52.396Z,8.23
2023-02-11T22:35:19.561Z,8.17
2023-02-11T22:37:46.782Z,8.60
2023-02-11T22:40:14.385Z,8.20
2023-02-11T22:42:41.565Z,8.07
2023-02-11T22:45:08.931Z,8.43
2023-02-11T22:47:37.510Z,7.63
2023-02-11T22:50:04.834Z,8.70
2023-02-11T22:52:32.012Z,8.37
2023-02-11T22:55:00.384Z,8.13
2023-02-11T22:57:27.688Z,7.77
2023-02-11T22:59:54.796Z,8.13
2023-02-11T23:02:22.121Z,8.07
2023-02-11T23:04:50.044Z,7.73
2023-02-11T23:07:17.403Z,7.63
2023-02-11T23:09:44.557Z,7.67
2023-02-11T23:12:11.674Z,8.93
2023-02-11T23:14:38.793Z,8.20
2023-02-11T23:17:05.902Z,7.37
2023-02-11T23:19:33.087Z,7.83
2023-02-11T23:22:00.227Z,7.50
2023-02-11T23:24:27.368Z,8.50
2023-02-11T23:26:54.591Z,8.33
2023-02-11T23:29:21.736Z,8.70
2023-02-11T23:31:49.948Z,8.00
2023-02-11T23:34:18.340Z,8.30
2023-02-11T23:36:45.516Z,9.20
2023-02-11T23:39:15.287Z,8.33
2023-02-11T23:41:42.405Z,7.90
2023-02-11T23:44:10.982Z,8.30
2023-02-11T23:46:38.698Z,8.93
2023-02-11T23:49:05.864Z,7.83
2023-02-11T23:51:32.978Z,8.70
2023-02-11T23:54:00.116Z,8.60
2023-02-11T23:56:28.439Z,8.37
2023-02-11T23:58:57.244Z,8.40
